sensor_id;sensor_type;location;lat;lon;timestamp;P1;durP1;ratioP1;P2;durP2;ratioP2
34200;SDS011;20469;55.638;37.670;2023-05-01T00:00:59;5.45;;;4.80;;
34200;SDS011;20469;55.638;37.670;2023-05-01T00:03:26;5.82;;;4.50;;
34200;SDS011;20469;55.638;37.670;2023-05-01T00:06:00;5.00;;;4.47;;
34200;SDS011;20469;55.638;37.670;2023-05-01T00:08:30;7.47;;;4.15;;
34200;SDS011;20469;55.638;37.670;2023-05-01T00:11:04;5.47;;;4.45;;
34200;SDS011;20469;55.638;37.670;2023-05-01T00:13:35;6.38;;;4.45;;
34200;SDS011;20469;55.638;37.670;2023-05-01T00:16:06;4.70;;;4.15;;
34200;SDS011;20469;55.638;37.670;2023-05-01T00:18:37;5.45;;;4.68;;
34200;SDS011;20469;55.638;37.670;2023-05-01T00:21:05;4.90;;;4.38;;
34200;SDS011;20469;55.638;37.670;2023-05-01T00:23:32;6.05;;;4.35;;
34200;SDS011;20469;55.638;37.670;2023-05-01T00:25:59;6.68;;;4.72;;
34200;SDS011;20469;55.638;37.670;2023-05-01T00:28:26;6.13;;;4.53;;
34200;SDS011;20469;55.638;37.670;2023-05-01T00:30:54;4.95;;;4.45;;
34200;SDS011;20469;55.638;37.670;2023-05-01T00:33:22;7.07;;;4.20;;
34200;SDS011;20469;55.638;37.670;2023-05-01T00:35:49;4.68;;;4.22;;
34200;SDS011;20469;55.638;37.670;2023-05-01T00:38:18;4.65;;;4.00;;
34200;SDS011;20469;55.638;37.670;2023-05-01T00:40:45;5.00;;;3.83;;
34200;SDS011;20469;55.638;37.670;2023-05-01T00:43:12;5.10;;;3.58;;
34200;SDS011;20469;55.638;37.670;2023-05-01T00:45:42;5.65;;;4.10;;
34200;SDS011;20469;55.638;37.670;2023-05-01T00:48:11;4.90;;;3.67;;
34200;SDS011;20469;55.638;37.670;2023-05-01T00:50:39;4.97;;;4.00;;
34200;SDS011;20469;55.638;37.670;2023-05-01T00:53:07;5.53;;;3.97;;
34200;SDS011;20469;55.638;37.670;2023-05-01T00:55:34;6.38;;;4.18;;
34200;SDS011;20469;55.638;37.670;2023-05-01T00:58:02;4.90;;;4.07;;
34200;SDS011;20469;55.638;37.670;2023-05-01T01:00:30;4.53;;;4.13;;
34200;SDS011;20469;55.638;37.670;2023-05-01T01:02:57;6.35;;;4.20;;
34200;SDS011;20469;55.638;37.670;2023-05-01T01:05:26;5.95;;;4.25;;
34200;SDS011;20469;55.638;37.670;2023-05-01T01:10:36;4.80;;;3.90;;
34200;SDS011;20469;55.638;37.670;2023-05-01T01:13:36;5.30;;;4.00;;
34200;SDS011;20469;55.638;37.670;2023-05-01T01:16:15;4.63;;;4.22;;
34200;SDS011;20469;55.638;37.670;2023-05-01T01:18:55;5.05;;;4.50;;
34200;SDS011;20469;55.638;37.670;2023-05-01T01:21:42;5.25;;;4.50;;
34200;SDS011;20469;55.638;37.670;2023-05-01T01:35:25;4.07;;;3.67;;
34200;SDS011;20469;55.638;37.670;2023-05-01T01:38:02;4.15;;;3.75;;
34200;SDS011;20469;55.638;37.670;2023-05-01T01:41:08;4.05;;;3.65;;
34200;SDS011;20469;55.638;37.670;2023-05-01T01:43:43;5.72;;;4.32;;
34200;SDS011;20469;55.638;37.670;2023-05-01T01:46:18;6.03;;;3.88;;
34200;SDS011;20469;55.638;37.670;2023-05-01T01:48:48;4.45;;;2.85;;
34200;SDS011;20469;55.638;37.670;2023-05-01T01:51:17;3.85;;;3.30;;
34200;SDS011;20469;55.638;37.670;2023-05-01T01:53:47;3.78;;;3.30;;
34200;SDS011;20469;55.638;37.670;2023-05-01T01:58:48;4.28;;;3.28;;
34200;SDS011;20469;55.638;37.670;2023-05-01T02:01:17;3.33;;;2.95;;
34200;SDS011;20469;55.638;37.670;2023-05-01T02:03:45;3.95;;;2.90;;
34200;SDS011;20469;55.638;37.670;2023-05-01T02:06:13;4.43;;;3.00;;
34200;SDS011;20469;55.638;37.670;2023-05-01T02:08:42;3.35;;;3.05;;
34200;SDS011;20469;55.638;37.670;2023-05-01T02:11:12;3.47;;;3.17;;
34200;SDS011;20469;55.638;37.670;2023-05-01T02:13:41;4.00;;;2.78;;
34200;SDS011;20469;55.638;37.670;2023-05-01T02:16:29;4.35;;;2.97;;
34200;SDS011;20469;55.638;37.670;2023-05-01T02:18:59;3.22;;;2.88;;
34200;SDS011;20469;55.638;37.670;2023-05-01T02:21:30;3.63;;;2.83;;
34200;SDS011;20469;55.638;37.670;2023-05-01T02:24:00;2.90;;;2.50;;
34200;SDS011;20469;55.638;37.670;2023-05-01T02:26:28;4.80;;;2.50;;
34200;SDS011;20469;55.638;37.670;2023-05-01T02:28:56;2.80;;;2.50;;
34200;SDS011;20469;55.638;37.670;2023-05-01T02:31:24;3.00;;;2.50;;
34200;SDS011;20469;55.638;37.670;2023-05-01T02:33:52;3.20;;;2.40;;
34200;SDS011;20469;55.638;37.670;2023-05-01T02:36:19;2.92;;;2.63;;
34200;SDS011;20469;55.638;37.670;2023-05-01T02:38:46;3.40;;;2.88;;
34200;SDS011;20469;55.638;37.670;2023-05-01T02:41:16;4.95;;;3.40;;
34200;SDS011;20469;55.638;37.670;2023-05-01T02:43:48;3.97;;;3.00;;
34200;SDS011;20469;55.638;37.670;2023-05-01T02:46:20;4.30;;;3.90;;
34200;SDS011;20469;55.638;37.670;2023-05-01T02:48:51;4.10;;;3.75;;
34200;SDS011;20469;55.638;37.670;2023-05-01T02:51:19;5.30;;;4.70;;
34200;SDS011;20469;55.638;37.670;2023-05-01T02:53:48;4.10;;;3.70;;
34200;SDS011;20469;55.638;37.670;2023-05-01T02:56:15;5.60;;;3.67;;
34200;SDS011;20469;55.638;37.670;2023-05-01T02:58:43;5.28;;;4.13;;
34200;SDS011;20469;55.638;37.670;2023-05-01T03:01:10;5.70;;;4.28;;
34200;SDS011;20469;55.638;37.670;2023-05-01T03:03:37;5.05;;;4.55;;
34200;SDS011;20469;55.638;37.670;2023-05-01T03:06:05;5.95;;;4.18;;
34200;SDS011;20469;55.638;37.670;2023-05-01T03:08:32;4.25;;;3.83;;
34200;SDS011;20469;55.638;37.670;2023-05-01T03:11:03;4.53;;;3.88;;
34200;SDS011;20469;55.638;37.670;2023-05-01T03:13:34;5.00;;;3.53;;
34200;SDS011;20469;55.638;37.670;2023-05-01T03:16:01;4.03;;;3.63;;
34200;SDS011;20469;55.638;37.670;2023-05-01T03:18:30;3.90;;;3.50;;
34200;SDS011;20469;55.638;37.670;2023-05-01T03:20:57;3.83;;;3.47;;
34200;SDS011;20469;55.638;37.670;2023-05-01T03:23:24;3.53;;;3.15;;
34200;SDS011;20469;55.638;37.670;2023-05-01T03:25:53;3.72;;;3.33;;
34200;SDS011;20469;55.638;37.670;2023-05-01T03:28:20;3.50;;;3.20;;
34200;SDS011;20469;55.638;37.670;2023-05-01T03:30:49;3.35;;;3.05;;
34200;SDS011;20469;55.638;37.670;2023-05-01T03:33:19;3.28;;;2.83;;
34200;SDS011;20469;55.638;37.670;2023-05-01T03:35:47;4.15;;;3.10;;
34200;SDS011;20469;55.638;37.670;2023-05-01T03:38:14;3.30;;;3.00;;
34200;SDS011;20469;55.638;37.670;2023-05-01T03:40:41;3.70;;;3.20;;
34200;SDS011;20469;55.638;37.670;2023-05-01T03:43:08;3.80;;;3.13;;
34200;SDS011;20469;55.638;37.670;2023-05-01T03:45:36;3.85;;;3.22;;
34200;SDS011;20469;55.638;37.670;2023-05-01T03:48:03;3.38;;;3.03;;
34200;SDS011;20469;55.638;37.670;2023-05-01T03:50:31;4.05;;;3.00;;
34200;SDS011;20469;55.638;37.670;2023-05-01T03:52:58;3.72;;;2.92;;
34200;SDS011;20469;55.638;37.670;2023-05-01T03:55:25;3.20;;;2.90;;
34200;SDS011;20469;55.638;37.670;2023-05-01T03:57:52;3.65;;;3.03;;
34200;SDS011;20469;55.638;37.670;2023-05-01T04:00:19;3.20;;;2.90;;
34200;SDS011;20469;55.638;37.670;2023-05-01T04:02:47;3.63;;;2.70;;
34200;SDS011;20469;55.638;37.670;2023-05-01T04:05:14;3.42;;;2.78;;
34200;SDS011;20469;55.638;37.670;2023-05-01T04:07:41;2.78;;;2.58;;
34200;SDS011;20469;55.638;37.670;2023-05-01T04:10:09;3.00;;;2.60;;
34200;SDS011;20469;55.638;37.670;2023-05-01T04:12:36;2.92;;;2.63;;
34200;SDS011;20469;55.638;37.670;2023-05-01T04:15:03;3.42;;;2.70;;
34200;SDS011;20469;55.638;37.670;2023-05-01T04:17:34;3.00;;;2.63;;
34200;SDS011;20469;55.638;37.670;2023-05-01T04:20:02;2.88;;;2.60;;
34200;SDS011;20469;55.638;37.670;2023-05-01T04:22:33;3.30;;;3.00;;
34200;SDS011;20469;55.638;37.670;2023-05-01T04:25:00;3.30;;;3.00;;
34200;SDS011;20469;55.638;37.670;2023-05-01T04:27:30;3.72;;;2.70;;
34200;SDS011;20469;55.638;37.670;2023-05-01T04:29:57;3.22;;;2.92;;
34200;SDS011;20469;55.638;37.670;2023-05-01T04:32:25;3.45;;;2.70;;
34200;SDS011;20469;55.638;37.670;2023-05-01T04:34:52;3.85;;;3.10;;
34200;SDS011;20469;55.638;37.670;2023-05-01T04:37:19;3.40;;;3.10;;
34200;SDS011;20469;55.638;37.670;2023-05-01T04:39:47;3.42;;;3.13;;
34200;SDS011;20469;55.638;37.670;2023-05-01T04:42:14;3.15;;;2.88;;
34200;SDS011;20469;55.638;37.670;2023-05-01T04:44:41;4.47;;;3.20;;
34200;SDS011;20469;55.638;37.670;2023-05-01T04:47:08;4.55;;;3.00;;
34200;SDS011;20469;55.638;37.670;2023-05-01T04:49:36;4.20;;;2.95;;
34200;SDS011;20469;55.638;37.670;2023-05-01T04:52:03;4.65;;;3.38;;
34200;SDS011;20469;55.638;37.670;2023-05-01T04:54:30;5.10;;;3.05;;
34200;SDS011;20469;55.638;37.670;2023-05-01T04:56:57;5.43;;;3.30;;
34200;SDS011;20469;55.638;37.670;2023-05-01T04:59:24;6.82;;;3.40;;
34200;SDS011;20469;55.638;37.670;2023-05-01T05:01:51;3.35;;;3.05;;
34200;SDS011;20469;55.638;37.670;2023-05-01T05:04:18;3.42;;;3.13;;
34200;SDS011;20469;55.638;37.670;2023-05-01T05:06:46;3.17;;;2.88;;
34200;SDS011;20469;55.638;37.670;2023-05-01T05:12:00;3.88;;;3.47;;
34200;SDS011;20469;55.638;37.670;2023-05-01T05:14:29;6.28;;;4.35;;
34200;SDS011;20469;55.638;37.670;2023-05-01T05:16:57;3.65;;;3.28;;
34200;SDS011;20469;55.638;37.670;2023-05-01T05:19:42;4.10;;;3.50;;
34200;SDS011;20469;55.638;37.670;2023-05-01T05:22:10;3.88;;;3.47;;
34200;SDS011;20469;55.638;37.670;2023-05-01T05:24:38;4.43;;;3.70;;
34200;SDS011;20469;55.638;37.670;2023-05-01T05:27:05;5.00;;;3.47;;
34200;SDS011;20469;55.638;37.670;2023-05-01T05:29:32;4.15;;;3.75;;
34200;SDS011;20469;55.638;37.670;2023-05-01T05:32:00;5.07;;;3.80;;
34200;SDS011;20469;55.638;37.670;2023-05-01T05:34:46;5.65;;;3.90;;
34200;SDS011;20469;55.638;37.670;2023-05-01T05:37:13;5.00;;;3.78;;
34200;SDS011;20469;55.638;37.670;2023-05-01T05:39:40;4.63;;;3.88;;
34200;SDS011;20469;55.638;37.670;2023-05-01T05:42:07;5.85;;;4.05;;
34200;SDS011;20469;55.638;37.670;2023-05-01T05:44:35;6.00;;;4.32;;
34200;SDS011;20469;55.638;37.670;2023-05-01T05:47:02;5.15;;;4.32;;
34200;SDS011;20469;55.638;37.670;2023-05-01T05:55:21;6.47;;;3.95;;
34200;SDS011;20469;55.638;37.670;2023-05-01T05:58:07;9.45;;;4.45;;
34200;SDS011;20469;55.638;37.670;2023-05-01T06:00:34;5.63;;;4.30;;
34200;SDS011;20469;55.638;37.670;2023-05-01T06:03:02;6.47;;;4.32;;
34200;SDS011;20469;55.638;37.670;2023-05-01T06:05:29;5.63;;;4.22;;
34200;SDS011;20469;55.638;37.670;2023-05-01T06:07:57;4.80;;;4.03;;
34200;SDS011;20469;55.638;37.670;2023-05-01T06:10:24;6.95;;;4.47;;
34200;SDS011;20469;55.638;37.670;2023-05-01T06:12:51;6.13;;;4.18;;
34200;SDS011;20469;55.638;37.670;2023-05-01T06:15:29;5.57;;;4.35;;
34200;SDS011;20469;55.638;37.670;2023-05-01T06:17:56;4.15;;;3.70;;
34200;SDS011;20469;55.638;37.670;2023-05-01T06:20:23;5.30;;;3.58;;
34200;SDS011;20469;55.638;37.670;2023-05-01T06:22:50;6.07;;;3.88;;
34200;SDS011;20469;55.638;37.670;2023-05-01T06:25:17;4.47;;;3.40;;
34200;SDS011;20469;55.638;37.670;2023-05-01T06:27:44;4.35;;;3.95;;
34200;SDS011;20469;55.638;37.670;2023-05-01T06:30:12;5.82;;;3.80;;
34200;SDS011;20469;55.638;37.670;2023-05-01T06:32:39;5.45;;;4.20;;
34200;SDS011;20469;55.638;37.670;2023-05-01T06:35:09;6.13;;;3.92;;
34200;SDS011;20469;55.638;37.670;2023-05-01T06:37:36;4.63;;;3.80;;
34200;SDS011;20469;55.638;37.670;2023-05-01T06:40:04;6.28;;;3.92;;
34200;SDS011;20469;55.638;37.670;2023-05-01T06:42:33;4.93;;;3.47;;
34200;SDS011;20469;55.638;37.670;2023-05-01T06:45:00;5.78;;;4.03;;
34200;SDS011;20469;55.638;37.670;2023-05-01T06:50:18;5.90;;;4.57;;
34200;SDS011;20469;55.638;37.670;2023-05-01T06:52:45;5.18;;;4.47;;
34200;SDS011;20469;55.638;37.670;2023-05-01T06:55:12;5.15;;;3.95;;
34200;SDS011;20469;55.638;37.670;2023-05-01T06:57:40;5.50;;;4.18;;
34200;SDS011;20469;55.638;37.670;2023-05-01T07:00:08;7.82;;;4.07;;
34200;SDS011;20469;55.638;37.670;2023-05-01T07:02:36;8.10;;;4.10;;
34200;SDS011;20469;55.638;37.670;2023-05-01T07:05:04;5.32;;;4.28;;
34200;SDS011;20469;55.638;37.670;2023-05-01T07:07:31;6.97;;;4.63;;
34200;SDS011;20469;55.638;37.670;2023-05-01T07:09:58;6.15;;;4.03;;
34200;SDS011;20469;55.638;37.670;2023-05-01T07:12:27;4.82;;;3.58;;
34200;SDS011;20469;55.638;37.670;2023-05-01T07:14:55;6.78;;;3.67;;
34200;SDS011;20469;55.638;37.670;2023-05-01T07:17:22;7.70;;;3.95;;
34200;SDS011;20469;55.638;37.670;2023-05-01T07:19:49;7.47;;;4.20;;
34200;SDS011;20469;55.638;37.670;2023-05-01T07:22:17;7.22;;;3.85;;
34200;SDS011;20469;55.638;37.670;2023-05-01T07:24:45;5.63;;;3.53;;
34200;SDS011;20469;55.638;37.670;2023-05-01T07:27:12;6.63;;;3.80;;
34200;SDS011;20469;55.638;37.670;2023-05-01T07:29:39;5.72;;;3.60;;
34200;SDS011;20469;55.638;37.670;2023-05-01T07:32:06;6.20;;;3.88;;
34200;SDS011;20469;55.638;37.670;2023-05-01T07:34:33;7.60;;;3.85;;
34200;SDS011;20469;55.638;37.670;2023-05-01T07:37:01;5.82;;;4.30;;
34200;SDS011;20469;55.638;37.670;2023-05-01T07:39:30;8.68;;;3.58;;
34200;SDS011;20469;55.638;37.670;2023-05-01T07:41:57;4.30;;;3.90;;
34200;SDS011;20469;55.638;37.670;2023-05-01T07:44:24;5.70;;;3.65;;
34200;SDS011;20469;55.638;37.670;2023-05-01T07:46:51;9.73;;;3.97;;
34200;SDS011;20469;55.638;37.670;2023-05-01T07:49:18;5.13;;;3.65;;
34200;SDS011;20469;55.638;37.670;2023-05-01T07:51:46;6.15;;;3.92;;
34200;SDS011;20469;55.638;37.670;2023-05-01T07:54:14;9.88;;;3.60;;
34200;SDS011;20469;55.638;37.670;2023-05-01T07:56:42;5.97;;;3.92;;
34200;SDS011;20469;55.638;37.670;2023-05-01T07:59:10;7.10;;;4.25;;
34200;SDS011;20469;55.638;37.670;2023-05-01T08:01:37;6.78;;;3.55;;
34200;SDS011;20469;55.638;37.670;2023-05-01T08:04:04;5.47;;;3.30;;
34200;SDS011;20469;55.638;37.670;2023-05-01T08:06:31;7.10;;;3.92;;
34200;SDS011;20469;55.638;37.670;2023-05-01T08:08:59;4.38;;;3.47;;
34200;SDS011;20469;55.638;37.670;2023-05-01T08:11:45;7.45;;;3.80;;
34200;SDS011;20469;55.638;37.670;2023-05-01T08:14:12;6.55;;;3.15;;
34200;SDS011;20469;55.638;37.670;2023-05-01T08:16:40;3.97;;;3.42;;
34200;SDS011;20469;55.638;37.670;2023-05-01T08:19:07;4.35;;;3.25;;
34200;SDS011;20469;55.638;37.670;2023-05-01T08:24:39;8.27;;;4.22;;
34200;SDS011;20469;55.638;37.670;2023-05-01T08:27:08;8.63;;;3.83;;
34200;SDS011;20469;55.638;37.670;2023-05-01T08:29:35;4.78;;;3.28;;
34200;SDS011;20469;55.638;37.670;2023-05-01T08:32:03;6.25;;;3.38;;
34200;SDS011;20469;55.638;37.670;2023-05-01T08:34:30;10.90;;;3.75;;
34200;SDS011;20469;55.638;37.670;2023-05-01T08:36:57;6.88;;;3.85;;
34200;SDS011;20469;55.638;37.670;2023-05-01T08:39:43;9.00;;;3.88;;
34200;SDS011;20469;55.638;37.670;2023-05-01T08:42:10;7.35;;;3.75;;
34200;SDS011;20469;55.638;37.670;2023-05-01T08:44:39;6.15;;;4.30;;
34200;SDS011;20469;55.638;37.670;2023-05-01T08:47:11;7.15;;;3.95;;
34200;SDS011;20469;55.638;37.670;2023-05-01T08:49:42;6.97;;;4.13;;
34200;SDS011;20469;55.638;37.670;2023-05-01T08:52:11;6.53;;;3.75;;
34200;SDS011;20469;55.638;37.670;2023-05-01T08:54:43;5.03;;;3.60;;
34200;SDS011;20469;55.638;37.670;2023-05-01T08:57:12;8.95;;;4.00;;
34200;SDS011;20469;55.638;37.670;2023-05-01T08:59:40;4.80;;;3.50;;
34200;SDS011;20469;55.638;37.670;2023-05-01T09:02:09;5.78;;;3.65;;
34200;SDS011;20469;55.638;37.670;2023-05-01T09:04:37;7.78;;;3.70;;
34200;SDS011;20469;55.638;37.670;2023-05-01T09:07:06;3.85;;;2.97;;
34200;SDS011;20469;55.638;37.670;2023-05-01T09:09:35;6.80;;;3.60;;
34200;SDS011;20469;55.638;37.670;2023-05-01T09:14:35;7.18;;;3.15;;
34200;SDS011;20469;55.638;37.670;2023-05-01T09:17:03;5.85;;;3.40;;
34200;SDS011;20469;55.638;37.670;2023-05-01T09:19:30;5.90;;;3.83;;
34200;SDS011;20469;55.638;37.670;2023-05-01T09:21:58;5.32;;;3.70;;
34200;SDS011;20469;55.638;37.670;2023-05-01T09:24:25;7.00;;;4.15;;
34200;SDS011;20469;55.638;37.670;2023-05-01T09:26:52;6.95;;;3.75;;
34200;SDS011;20469;55.638;37.670;2023-05-01T09:29:39;8.13;;;3.88;;
34200;SDS011;20469;55.638;37.670;2023-05-01T09:32:15;4.75;;;3.45;;
34200;SDS011;20469;55.638;37.670;2023-05-01T09:34:43;4.80;;;3.40;;
34200;SDS011;20469;55.638;37.670;2023-05-01T09:37:32;5.22;;;3.33;;
34200;SDS011;20469;55.638;37.670;2023-05-01T09:40:11;3.65;;;2.72;;
34200;SDS011;20469;55.638;37.670;2023-05-01T09:42:47;5.88;;;3.10;;
34200;SDS011;20469;55.638;37.670;2023-05-01T09:45:18;4.78;;;3.17;;
34200;SDS011;20469;55.638;37.670;2023-05-01T09:47:45;6.63;;;3.40;;
34200;SDS011;20469;55.638;37.670;2023-05-01T09:50:32;8.23;;;3.97;;
34200;SDS011;20469;55.638;37.670;2023-05-01T09:53:00;10.00;;;3.72;;
34200;SDS011;20469;55.638;37.670;2023-05-01T09:55:30;7.68;;;3.20;;
34200;SDS011;20469;55.638;37.670;2023-05-01T09:57:58;4.70;;;3.00;;
34200;SDS011;20469;55.638;37.670;2023-05-01T10:00:25;3.70;;;2.53;;
34200;SDS011;20469;55.638;37.670;2023-05-01T10:03:12;3.20;;;2.58;;
34200;SDS011;20469;55.638;37.670;2023-05-01T10:05:43;4.47;;;2.75;;
34200;SDS011;20469;55.638;37.670;2023-05-01T10:08:11;4.25;;;2.80;;
34200;SDS011;20469;55.638;37.670;2023-05-01T10:10:40;3.40;;;2.33;;
34200;SDS011;20469;55.638;37.670;2023-05-01T10:13:13;5.00;;;2.83;;
34200;SDS011;20469;55.638;37.670;2023-05-01T10:15:45;5.32;;;2.60;;
34200;SDS011;20469;55.638;37.670;2023-05-01T10:18:13;7.43;;;3.13;;
34200;SDS011;20469;55.638;37.670;2023-05-01T10:20:40;6.60;;;2.40;;
34200;SDS011;20469;55.638;37.670;2023-05-01T10:23:08;4.07;;;2.78;;
34200;SDS011;20469;55.638;37.670;2023-05-01T10:25:36;4.65;;;2.53;;
34200;SDS011;20469;55.638;37.670;2023-05-01T10:28:05;5.50;;;2.70;;
34200;SDS011;20469;55.638;37.670;2023-05-01T10:30:34;4.03;;;2.60;;
34200;SDS011;20469;55.638;37.670;2023-05-01T10:33:03;8.70;;;3.25;;
34200;SDS011;20469;55.638;37.670;2023-05-01T10:35:31;4.78;;;2.67;;
34200;SDS011;20469;55.638;37.670;2023-05-01T10:38:05;4.65;;;2.53;;
34200;SDS011;20469;55.638;37.670;2023-05-01T10:43:22;5.75;;;2.60;;
34200;SDS011;20469;55.638;37.670;2023-05-01T10:51:08;4.38;;;2.40;;
34200;SDS011;20469;55.638;37.670;2023-05-01T10:53:40;4.40;;;2.53;;
34200;SDS011;20469;55.638;37.670;2023-05-01T10:59:00;7.03;;;3.00;;
34200;SDS011;20469;55.638;37.670;2023-05-01T11:02:05;6.43;;;3.13;;
34200;SDS011;20469;55.638;37.670;2023-05-01T11:12:06;6.72;;;2.15;;
34200;SDS011;20469;55.638;37.670;2023-05-01T11:22:53;3.05;;;2.00;;
34200;SDS011;20469;55.638;37.670;2023-05-01T11:25:22;6.68;;;2.40;;
34200;SDS011;20469;55.638;37.670;2023-05-01T11:27:53;6.05;;;2.55;;
34200;SDS011;20469;55.638;37.670;2023-05-01T11:30:22;5.50;;;2.10;;
34200;SDS011;20469;55.638;37.670;2023-05-01T11:32:50;3.55;;;2.25;;
34200;SDS011;20469;55.638;37.670;2023-05-01T11:35:19;3.55;;;2.00;;
34200;SDS011;20469;55.638;37.670;2023-05-01T11:37:51;4.63;;;1.92;;
34200;SDS011;20469;55.638;37.670;2023-05-01T11:40:22;2.17;;;1.98;;
34200;SDS011;20469;55.638;37.670;2023-05-01T11:45:30;4.72;;;1.98;;
34200;SDS011;20469;55.638;37.670;2023-05-01T11:47:58;3.50;;;2.20;;
34200;SDS011;20469;55.638;37.670;2023-05-01T11:50:33;2.67;;;1.80;;
34200;SDS011;20469;55.638;37.670;2023-05-01T11:53:03;3.47;;;1.70;;
34200;SDS011;20469;55.638;37.670;2023-05-01T11:55:37;4.25;;;2.20;;
34200;SDS011;20469;55.638;37.670;2023-05-01T11:58:06;3.92;;;2.08;;
34200;SDS011;20469;55.638;37.670;2023-05-01T12:00:34;4.22;;;2.05;;
34200;SDS011;20469;55.638;37.670;2023-05-01T12:03:04;3.33;;;1.92;;
34200;SDS011;20469;55.638;37.670;2023-05-01T12:08:08;3.00;;;1.50;;
34200;SDS011;20469;55.638;37.670;2023-05-01T12:10:55;2.08;;;1.73;;
34200;SDS011;20469;55.638;37.670;2023-05-01T12:13:23;1.90;;;1.10;;
34200;SDS011;20469;55.638;37.670;2023-05-01T12:15:53;1.95;;;1.30;;
34200;SDS011;20469;55.638;37.670;2023-05-01T12:18:21;1.20;;;1.10;;
34200;SDS011;20469;55.638;37.670;2023-05-01T12:20:49;1.75;;;1.13;;
34200;SDS011;20469;55.638;37.670;2023-05-01T12:23:19;1.83;;;1.10;;
34200;SDS011;20469;55.638;37.670;2023-05-01T12:25:55;1.90;;;1.00;;
34200;SDS011;20469;55.638;37.670;2023-05-01T12:28:24;2.42;;;1.65;;
34200;SDS011;20469;55.638;37.670;2023-05-01T12:31:10;2.45;;;1.05;;
34200;SDS011;20469;55.638;37.670;2023-05-01T12:33:38;2.30;;;1.23;;
34200;SDS011;20469;55.638;37.670;2023-05-01T12:36:09;3.35;;;1.60;;
34200;SDS011;20469;55.638;37.670;2023-05-01T12:38:37;1.85;;;1.20;;
34200;SDS011;20469;55.638;37.670;2023-05-01T12:41:04;1.73;;;1.30;;
34200;SDS011;20469;55.638;37.670;2023-05-01T12:43:36;2.22;;;1.70;;
34200;SDS011;20469;55.638;37.670;2023-05-01T12:46:04;1.88;;;1.67;;
34200;SDS011;20469;55.638;37.670;2023-05-01T12:48:32;2.97;;;1.65;;
34200;SDS011;20469;55.638;37.670;2023-05-01T12:53:53;3.17;;;1.70;;
34200;SDS011;20469;55.638;37.670;2023-05-01T12:56:25;3.47;;;1.70;;
34200;SDS011;20469;55.638;37.670;2023-05-01T12:58:53;2.30;;;1.60;;
34200;SDS011;20469;55.638;37.670;2023-05-01T13:01:23;3.33;;;1.80;;
34200;SDS011;20469;55.638;37.670;2023-05-01T13:03:54;3.00;;;1.90;;
34200;SDS011;20469;55.638;37.670;2023-05-01T13:06:30;3.88;;;1.90;;
34200;SDS011;20469;55.638;37.670;2023-05-01T13:09:08;2.00;;;1.50;;
34200;SDS011;20469;55.638;37.670;2023-05-01T13:11:41;2.50;;;1.80;;
34200;SDS011;20469;55.638;37.670;2023-05-01T13:14:09;2.45;;;1.70;;
34200;SDS011;20469;55.638;37.670;2023-05-01T13:16:43;1.92;;;1.73;;
34200;SDS011;20469;55.638;37.670;2023-05-01T13:19:23;2.17;;;1.75;;
34200;SDS011;20469;55.638;37.670;2023-05-01T13:21:55;4.43;;;2.22;;
34200;SDS011;20469;55.638;37.670;2023-05-01T13:27:03;3.15;;;2.10;;
34200;SDS011;20469;55.638;37.670;2023-05-01T13:29:32;2.47;;;2.00;;
34200;SDS011;20469;55.638;37.670;2023-05-01T13:32:00;3.53;;;2.15;;
34200;SDS011;20469;55.638;37.670;2023-05-01T13:34:32;2.92;;;1.60;;
34200;SDS011;20469;55.638;37.670;2023-05-01T13:37:00;3.22;;;1.90;;
34200;SDS011;20469;55.638;37.670;2023-05-01T13:39:28;3.85;;;1.83;;
34200;SDS011;20469;55.638;37.670;2023-05-01T13:41:55;2.47;;;1.90;;
34200;SDS011;20469;55.638;37.670;2023-05-01T13:44:50;2.33;;;1.67;;
34200;SDS011;20469;55.638;37.670;2023-05-01T13:47:18;2.33;;;1.80;;
34200;SDS011;20469;55.638;37.670;2023-05-01T13:49:51;3.33;;;1.83;;
34200;SDS011;20469;55.638;37.670;2023-05-01T13:52:19;3.33;;;2.08;;
34200;SDS011;20469;55.638;37.670;2023-05-01T13:54:46;2.75;;;2.10;;
34200;SDS011;20469;55.638;37.670;2023-05-01T13:57:14;4.18;;;2.55;;
34200;SDS011;20469;55.638;37.670;2023-05-01T13:59:43;3.85;;;2.40;;
34200;SDS011;20469;55.638;37.670;2023-05-01T14:04:46;3.38;;;2.30;;
34200;SDS011;20469;55.638;37.670;2023-05-01T14:07:19;3.15;;;2.08;;
34200;SDS011;20469;55.638;37.670;2023-05-01T14:09:55;3.60;;;1.98;;
34200;SDS011;20469;55.638;37.670;2023-05-01T14:12:30;3.00;;;2.00;;
34200;SDS011;20469;55.638;37.670;2023-05-01T14:14:58;3.47;;;1.80;;
34200;SDS011;20469;55.638;37.670;2023-05-01T14:17:32;2.95;;;1.70;;
34200;SDS011;20469;55.638;37.670;2023-05-01T14:20:01;2.33;;;1.88;;
34200;SDS011;20469;55.638;37.670;2023-05-01T14:22:40;2.08;;;1.52;;
34200;SDS011;20469;55.638;37.670;2023-05-01T14:27:57;2.00;;;1.45;;
34200;SDS011;20469;55.638;37.670;2023-05-01T14:30:30;1.80;;;1.55;;
34200;SDS011;20469;55.638;37.670;2023-05-01T14:33:08;3.58;;;1.67;;
34200;SDS011;20469;55.638;37.670;2023-05-01T14:35:51;2.38;;;1.60;;
34200;SDS011;20469;55.638;37.670;2023-05-01T14:38:22;1.85;;;1.40;;
34200;SDS011;20469;55.638;37.670;2023-05-01T14:43:40;5.22;;;1.50;;
34200;SDS011;20469;55.638;37.670;2023-05-01T14:46:11;3.00;;;1.83;;
34200;SDS011;20469;55.638;37.670;2023-05-01T14:48:39;3.85;;;1.70;;
34200;SDS011;20469;55.638;37.670;2023-05-01T14:51:11;2.47;;;1.60;;
34200;SDS011;20469;55.638;37.670;2023-05-01T14:53:38;2.85;;;1.60;;
34200;SDS011;20469;55.638;37.670;2023-05-01T14:56:09;1.67;;;1.50;;
34200;SDS011;20469;55.638;37.670;2023-05-01T14:58:38;2.35;;;1.70;;
34200;SDS011;20469;55.638;37.670;2023-05-01T15:01:06;3.47;;;1.60;;
34200;SDS011;20469;55.638;37.670;2023-05-01T15:03:33;3.15;;;2.10;;
34200;SDS011;20469;55.638;37.670;2023-05-01T15:06:07;2.28;;;1.67;;
34200;SDS011;20469;55.638;37.670;2023-05-01T15:08:35;2.10;;;1.50;;
34200;SDS011;20469;55.638;37.670;2023-05-01T15:11:03;1.55;;;1.30;;
34200;SDS011;20469;55.638;37.670;2023-05-01T15:13:30;1.90;;;1.48;;
34200;SDS011;20469;55.638;37.670;2023-05-01T15:15:58;2.95;;;1.40;;
34200;SDS011;20469;55.638;37.670;2023-05-01T15:18:25;1.75;;;1.40;;
34200;SDS011;20469;55.638;37.670;2023-05-01T15:20:52;3.08;;;1.52;;
34200;SDS011;20469;55.638;37.670;2023-05-01T15:23:19;2.35;;;1.30;;
34200;SDS011;20469;55.638;37.670;2023-05-01T15:25:46;2.00;;;1.38;;
34200;SDS011;20469;55.638;37.670;2023-05-01T15:28:16;1.77;;;1.58;;
34200;SDS011;20469;55.638;37.670;2023-05-01T15:30:44;3.92;;;1.50;;
34200;SDS011;20469;55.638;37.670;2023-05-01T15:33:12;3.63;;;1.80;;
34200;SDS011;20469;55.638;37.670;2023-05-01T15:35:44;3.60;;;1.60;;
34200;SDS011;20469;55.638;37.670;2023-05-01T15:38:12;2.33;;;1.70;;
34200;SDS011;20469;55.638;37.670;2023-05-01T15:40:41;1.92;;;1.60;;
34200;SDS011;20469;55.638;37.670;2023-05-01T15:43:09;3.22;;;1.60;;
34200;SDS011;20469;55.638;37.670;2023-05-01T15:45:36;3.42;;;1.67;;
34200;SDS011;20469;55.638;37.670;2023-05-01T15:48:09;4.60;;;1.60;;
34200;SDS011;20469;55.638;37.670;2023-05-01T15:50:39;2.88;;;1.60;;
34200;SDS011;20469;55.638;37.670;2023-05-01T15:53:06;3.80;;;1.88;;
34200;SDS011;20469;55.638;37.670;2023-05-01T15:55:34;4.03;;;2.10;;
34200;SDS011;20469;55.638;37.670;2023-05-01T15:58:02;3.90;;;1.90;;
34200;SDS011;20469;55.638;37.670;2023-05-01T16:00:29;1.98;;;1.67;;
34200;SDS011;20469;55.638;37.670;2023-05-01T16:02:59;2.83;;;1.90;;
34200;SDS011;20469;55.638;37.670;2023-05-01T16:05:30;4.82;;;1.80;;
34200;SDS011;20469;55.638;37.670;2023-05-01T16:07:58;1.73;;;1.63;;